WATT/KOE METAR and TAF weather

Enter ICAO airport designator
Station Type Date Time Source
WATT METAR 2020/10/20 12:00 UTC NOAA

WATT 201200Z 14007KT 8000 FEW020 28/23 Q1010 NOSIG


Station Type Date Time Source
WATT Decoded METAR 2020/10/20 12:00 UTC NOAA

Station name not available
Oct 20, 2020 - 08:00 AM EDT / 2020.10.20 1200 UTC
Wind: from the SE (140 degrees) at 8 MPH (7 KT):0
Visibility: 4 mile(s):0
Sky conditions: mostly clear
Temperature: 82 F (28 C)
Dew Point: 73 F (23 C)
Relative Humidity: 74%
Pressure (altimeter): 29.83 in. Hg (1010 hPa)
ob: WATT 201200Z 14007KT 8000 FEW020 28/23 Q1010 NOSIG
cycle: 12

Station Type Date Time Source
WATT TAF 2020/10/20 18:00 UTC NOAA

TAF WATT 201700Z 2018/2118 11005KT 8000 FEW020
BECMG 2102/2104 32015KT
BECMG 2110/2112 12008KT

Example: see airport list